Port Hueneme CBC Base, California
Current Conditions -  °F | °C
As of 8:51 AM on Wednesday 26 Nov 2014 (Local Time) from KOXR Reporting Station
Clear Clear  
Wind Chill: 69°   Ceiling: Unl
Heat Index: 69°   Visibility: 10mi
Dew Point: 22°   Wind: 8mph
Humidity: 17%   Direction: 70°ENE
Pressure: 30.23"   Gusts: NA
Location:  34.15°N, 119.19°W
Report Text: KOXR 261651Z 07007KT 10SM CLR 21/M06 A3023 RMK AO2 SLP237 T02061056
Loading
Personal Weather Stations






























Interactive Weather Map New forecast layout! Learn more

10-Day Weather Forecast

Advertisements
Track Severe Weather on mobile